createdAt,value
2022-08-22T00:00:50.277Z,3.77
2022-08-22T00:02:42.775Z,1.80
2022-08-22T00:04:14.531Z,3.07
2022-08-22T00:07:37.129Z,3.13
2022-08-22T00:10:58.186Z,2.90
2022-08-22T00:14:11.976Z,3.50
2022-08-22T00:17:36.604Z,3.40
2022-08-22T00:20:50.366Z,3.57
2022-08-22T00:24:10.448Z,3.63
2022-08-22T00:27:22.454Z,2.80
2022-08-22T00:30:27.889Z,4.00
2022-08-22T00:33:43.970Z,3.97
2022-08-22T00:37:03.423Z,3.63
2022-08-22T00:40:43.026Z,3.73
2022-08-22T00:44:36.808Z,3.30
2022-08-22T00:48:04.415Z,4.07
2022-08-22T00:51:52.924Z,3.33
2022-08-22T00:55:21.964Z,3.60
2022-08-22T00:59:22.967Z,3.70
2022-08-22T01:03:14.313Z,4.33
2022-08-22T01:06:31.006Z,4.30
2022-08-22T01:09:54.773Z,4.90
2022-08-22T01:13:32.668Z,5.00
2022-08-22T01:17:09.443Z,4.97
2022-08-22T01:21:20.125Z,5.30
2022-08-22T01:25:26.585Z,5.40
2022-08-22T01:29:33.547Z,4.50
2022-08-22T01:33:39.978Z,5.00
2022-08-22T01:37:39.622Z,4.60
2022-08-22T01:41:49.372Z,5.27
2022-08-22T01:45:23.212Z,5.07
2022-08-22T01:48:39.363Z,5.00
2022-08-22T01:51:53.438Z,5.90
2022-08-22T01:55:08.510Z,5.60
2022-08-22T01:58:21.299Z,5.20
2022-08-22T02:01:53.255Z,5.10
2022-08-22T02:05:07.188Z,4.50
2022-08-22T02:08:28.219Z,4.60
2022-08-22T02:11:56.376Z,4.80
2022-08-22T02:15:18.406Z,4.33
2022-08-22T02:18:31.031Z,4.47
2022-08-22T02:21:47.527Z,4.70
2022-08-22T02:25:06.975Z,4.20
2022-08-22T02:28:30.834Z,5.47
2022-08-22T02:31:46.376Z,5.20
2022-08-22T02:35:03.701Z,5.07
2022-08-22T02:38:38.474Z,5.10
2022-08-22T02:41:55.078Z,5.63
2022-08-22T02:45:22.593Z,5.07
2022-08-22T02:48:42.755Z,5.07
2022-08-22T02:51:56.269Z,5.37
2022-08-22T02:55:08.995Z,6.30
2022-08-22T02:58:24.486Z,5.33
2022-08-22T03:01:45.528Z,5.97
2022-08-22T03:04:55.739Z,5.70
2022-08-22T03:08:14.684Z,5.43
2022-08-22T03:11:27.976Z,6.43
2022-08-22T03:14:41.255Z,5.97
2022-08-22T03:17:57.297Z,6.27
2022-08-22T03:21:18.601Z,5.97
2022-08-22T03:24:32.910Z,6.77
2022-08-22T03:27:46.174Z,5.80
2022-08-22T03:31:08.354Z,6.53
2022-08-22T03:34:24.782Z,6.10
2022-08-22T03:37:41.279Z,6.40
2022-08-22T03:41:10.541Z,7.13
2022-08-22T03:44:50.883Z,6.80
2022-08-22T03:48:22.284Z,5.93
2022-08-22T03:51:51.388Z,6.20
2022-08-22T03:55:27.758Z,6.43
2022-08-22T03:59:02.251Z,6.53
2022-08-22T04:02:47.823Z,6.20
2022-08-22T04:06:42.215Z,6.63
2022-08-22T04:10:39.723Z,6.53
2022-08-22T04:14:19.743Z,5.70
2022-08-22T04:17:51.260Z,6.17
2022-08-22T04:21:23.742Z,6.17
2022-08-22T04:24:55.306Z,6.80
2022-08-22T04:28:11.392Z,5.87
2022-08-22T04:31:21.732Z,6.30
2022-08-22T04:34:37.812Z,5.67
2022-08-22T04:37:52.191Z,5.47
2022-08-22T04:41:08.273Z,5.47
2022-08-22T04:44:18.542Z,5.57
2022-08-22T04:47:35.139Z,5.83
2022-08-22T04:50:47.551Z,5.90
2022-08-22T04:54:18.079Z,6.23
2022-08-22T04:57:37.886Z,6.57
2022-08-22T05:00:55.645Z,5.93
2022-08-22T05:04:06.742Z,6.57
2022-08-22T05:07:16.878Z,5.83
2022-08-22T05:10:25.786Z,6.97
2022-08-22T05:13:35.404Z,7.47
2022-08-22T05:16:45.025Z,6.37
2022-08-22T05:19:56.510Z,6.67
2022-08-22T05:23:17.422Z,6.40
2022-08-22T05:26:23.418Z,6.40
2022-08-22T05:29:33.039Z,6.47
2022-08-22T05:32:50.540Z,7.17
2022-08-22T05:36:02.806Z,6.67
2022-08-22T05:39:15.175Z,6.67
2022-08-22T05:42:27.559Z,6.43
2022-08-22T05:45:36.487Z,5.77
2022-08-22T05:48:47.483Z,5.93
2022-08-22T05:52:17.059Z,5.77
2022-08-22T05:55:29.999Z,4.93
2022-08-22T05:58:55.613Z,5.00
2022-08-22T06:02:10.680Z,4.63
2022-08-22T06:05:14.465Z,4.73
2022-08-22T06:08:26.287Z,3.97
2022-08-22T06:11:38.867Z,4.47
2022-08-22T06:14:54.170Z,3.47
2022-08-22T06:18:06.220Z,4.03
2022-08-22T06:21:14.604Z,3.53
2022-08-22T06:24:25.086Z,4.00
2022-08-22T06:27:31.435Z,3.13
2022-08-22T06:30:38.142Z,3.47
2022-08-22T06:33:46.635Z,3.30
2022-08-22T06:36:52.952Z,3.27
2022-08-22T06:39:57.996Z,3.20
2022-08-22T06:43:01.856Z,4.13
2022-08-22T06:46:07.403Z,3.10
2022-08-22T06:49:14.037Z,3.50
2022-08-22T06:52:24.484Z,3.20
2022-08-22T06:55:31.556Z,3.30
2022-08-22T06:58:39.957Z,3.30
2022-08-22T07:01:52.147Z,4.13
2022-08-22T07:04:57.743Z,3.83
2022-08-22T07:08:08.813Z,3.60
2022-08-22T07:11:21.877Z,3.30
2022-08-22T07:14:32.539Z,3.53
2022-08-22T07:17:40.509Z,3.67
2022-08-22T07:20:54.549Z,3.53
2022-08-22T07:24:02.160Z,3.80
2022-08-22T07:27:28.305Z,3.40
2022-08-22T07:30:51.401Z,2.80
2022-08-22T07:34:05.868Z,3.03
2022-08-22T07:37:23.969Z,2.70
2022-08-22T07:40:39.144Z,2.80
2022-08-22T07:43:49.281Z,3.23
2022-08-22T07:47:00.686Z,3.60
2022-08-22T07:50:10.552Z,3.00
2022-08-22T07:53:28.015Z,2.53
2022-08-22T07:56:42.395Z,2.40
2022-08-22T07:59:52.102Z,2.80
2022-08-22T08:03:00.408Z,2.40
2022-08-22T08:06:05.750Z,2.60
2022-08-22T08:09:16.276Z,3.67
2022-08-22T08:12:30.272Z,3.37
2022-08-22T08:15:46.909Z,3.07
2022-08-22T08:18:54.504Z,2.90
2022-08-22T08:22:00.586Z,2.63
2022-08-22T08:25:08.784Z,2.50
2022-08-22T08:28:30.321Z,2.53
2022-08-22T08:31:43.333Z,2.33
2022-08-22T08:34:49.527Z,2.50
2022-08-22T08:38:02.809Z,2.53
2022-08-22T08:41:50.915Z,2.60
2022-08-22T08:45:20.471Z,2.50
2022-08-22T08:48:55.066Z,2.20
2022-08-22T08:52:53.058Z,2.60
2022-08-22T08:56:06.955Z,2.77
2022-08-22T08:59:44.334Z,2.10
2022-08-22T09:03:15.458Z,2.70
2022-08-22T09:06:56.633Z,2.27
2022-08-22T09:10:46.416Z,2.07
2022-08-22T09:14:14.127Z,2.43
2022-08-22T09:17:51.927Z,2.60
2022-08-22T09:21:31.565Z,1.87
2022-08-22T09:25:23.599Z,2.77
2022-08-22T09:28:36.162Z,2.13
2022-08-22T09:31:54.880Z,1.80
2022-08-22T09:35:18.659Z,1.97
2022-08-22T09:38:48.029Z,2.43
2022-08-22T09:42:02.662Z,2.07
2022-08-22T09:45:43.178Z,2.07
2022-08-22T09:49:06.492Z,1.80
2022-08-22T09:52:34.638Z,2.33
2022-08-22T09:55:54.057Z,1.97
2022-08-22T09:59:09.696Z,1.73
2022-08-22T10:02:31.588Z,2.30
2022-08-22T10:05:46.969Z,2.30
2022-08-22T10:09:09.086Z,1.97
2022-08-22T10:12:24.837Z,2.80
2022-08-22T10:15:40.023Z,2.33
2022-08-22T10:19:00.842Z,2.20
2022-08-22T10:22:44.474Z,2.30
2022-08-22T10:25:55.802Z,2.50
2022-08-22T10:29:32.880Z,2.00
2022-08-22T10:32:47.266Z,2.87
2022-08-22T10:36:05.373Z,1.83
2022-08-22T10:39:18.059Z,2.30
2022-08-22T10:42:35.714Z,2.00
2022-08-22T10:46:12.328Z,2.00
2022-08-22T10:49:29.228Z,1.83
2022-08-22T10:52:45.087Z,2.30
2022-08-22T10:55:55.191Z,2.07
2022-08-22T10:59:18.687Z,2.20
2022-08-22T11:02:44.784Z,1.97
2022-08-22T11:05:51.071Z,2.07
2022-08-22T11:09:16.393Z,1.87
2022-08-22T11:12:41.485Z,1.77
2022-08-22T11:16:04.896Z,3.23
2022-08-22T11:19:46.038Z,2.00
2022-08-22T11:23:12.330Z,1.97
2022-08-22T11:26:47.439Z,2.03
2022-08-22T11:30:02.079Z,1.73
2022-08-22T11:33:46.674Z,2.53
2022-08-22T11:36:57.221Z,2.97
2022-08-22T11:40:24.215Z,2.43
2022-08-22T11:43:51.556Z,5.03
2022-08-22T11:46:58.835Z,3.63
2022-08-22T11:50:20.376Z,2.23
2022-08-22T11:53:37.311Z,1.90
2022-08-22T11:56:52.614Z,1.63
2022-08-22T12:00:15.215Z,1.67
2022-08-22T12:03:44.184Z,6.50
2022-08-22T12:07:07.071Z,2.30
2022-08-22T12:10:18.696Z,2.00
2022-08-22T12:13:42.706Z,1.80
2022-08-22T12:17:41.579Z,1.70
2022-08-22T12:21:41.707Z,1.77
2022-08-22T12:25:12.078Z,1.87
2022-08-22T12:28:30.885Z,1.83
2022-08-22T12:32:01.715Z,1.87
2022-08-22T12:35:34.454Z,1.90
2022-08-22T12:38:59.543Z,2.10
2022-08-22T12:42:25.704Z,1.50
2022-08-22T12:46:01.678Z,1.70
2022-08-22T12:49:32.110Z,1.92
2022-08-22T12:53:26.428Z,1.73
2022-08-22T12:56:48.642Z,1.60
2022-08-22T13:00:01.818Z,1.70
2022-08-22T13:03:11.462Z,1.70
2022-08-22T13:06:53.298Z,1.80
2022-08-22T13:10:04.015Z,2.00
2022-08-22T13:13:14.431Z,1.90
2022-08-22T13:16:24.879Z,1.70
2022-08-22T13:19:34.710Z,1.80
2022-08-22T13:22:45.577Z,2.00
2022-08-22T13:26:09.535Z,2.03
2022-08-22T13:29:26.074Z,1.70
2022-08-22T13:32:44.387Z,2.00
2022-08-22T13:35:54.070Z,1.63
2022-08-22T13:39:07.292Z,1.70
2022-08-22T13:42:27.608Z,1.60
2022-08-22T13:45:58.054Z,1.60
2022-08-22T13:49:13.636Z,1.70
2022-08-22T13:52:31.552Z,1.90
2022-08-22T13:55:49.215Z,1.63
2022-08-22T13:58:59.534Z,3.47
2022-08-22T14:02:17.994Z,1.70
2022-08-22T14:05:30.255Z,1.70
2022-08-22T14:08:45.770Z,1.70
2022-08-22T14:11:56.270Z,1.70
2022-08-22T14:15:03.853Z,1.93
2022-08-22T14:18:15.672Z,1.60
2022-08-22T14:21:40.858Z,1.90
2022-08-22T14:24:55.656Z,1.70
2022-08-22T14:28:06.313Z,1.33
2022-08-22T14:31:14.449Z,1.50
2022-08-22T14:34:19.089Z,1.90
2022-08-22T14:37:31.672Z,2.00
2022-08-22T14:40:38.543Z,1.47
2022-08-22T14:43:54.691Z,2.27
2022-08-22T14:47:32.658Z,1.50
2022-08-22T14:50:53.048Z,1.67
2022-08-22T14:54:14.127Z,1.87
2022-08-22T14:57:24.978Z,1.77
2022-08-22T15:00:38.845Z,1.67
2022-08-22T15:03:44.120Z,2.00
2022-08-22T15:06:58.611Z,1.90
2022-08-22T15:10:12.053Z,1.90
2022-08-22T15:13:25.149Z,1.70
2022-08-22T15:16:37.394Z,1.70
2022-08-22T15:19:52.054Z,2.07
2022-08-22T15:23:00.328Z,1.80
2022-08-22T15:26:13.048Z,1.70
2022-08-22T15:29:21.521Z,1.77
2022-08-22T15:32:30.132Z,1.90
2022-08-22T15:35:38.819Z,1.77
2022-08-22T15:38:48.215Z,2.03
2022-08-22T15:41:53.448Z,2.07
2022-08-22T15:44:57.707Z,2.07
2022-08-22T15:48:05.738Z,1.83
2022-08-22T15:51:13.457Z,1.83
2022-08-22T15:54:25.063Z,2.10
2022-08-22T15:57:34.981Z,1.60
2022-08-22T16:00:45.578Z,1.93
2022-08-22T16:04:01.188Z,1.53
2022-08-22T16:07:36.235Z,1.97
2022-08-22T16:10:45.072Z,1.60
2022-08-22T16:14:21.278Z,1.80
2022-08-22T16:17:53.319Z,2.10
2022-08-22T16:20:59.176Z,1.63
2022-08-22T16:24:33.992Z,1.80
2022-08-22T16:27:57.155Z,1.60
2022-08-22T16:31:24.652Z,1.57
2022-08-22T16:34:43.897Z,2.10
2022-08-22T16:37:51.553Z,2.10
2022-08-22T16:40:56.535Z,1.97
2022-08-22T16:44:43.368Z,2.13
2022-08-22T16:47:54.562Z,1.87
2022-08-22T16:51:21.199Z,2.07
2022-08-22T16:54:46.315Z,1.97
2022-08-22T16:58:06.299Z,2.20
2022-08-22T17:01:21.447Z,1.80
2022-08-22T17:04:38.032Z,2.10
2022-08-22T17:08:04.373Z,1.73
2022-08-22T17:11:32.118Z,1.83
2022-08-22T17:14:55.202Z,2.20
2022-08-22T17:18:41.234Z,1.93
2022-08-22T17:21:57.279Z,1.80
2022-08-22T17:25:21.611Z,2.57
2022-08-22T17:28:40.655Z,2.00
2022-08-22T17:31:55.252Z,1.77
2022-08-22T17:35:14.620Z,1.90
2022-08-22T17:38:38.436Z,1.67
2022-08-22T17:41:54.186Z,2.13
2022-08-22T17:45:10.834Z,1.83
2022-08-22T17:48:21.811Z,2.20
2022-08-22T17:51:33.928Z,2.40
2022-08-22T17:54:49.047Z,1.83
2022-08-22T17:58:01.944Z,1.93
2022-08-22T18:01:14.000Z,1.83
2022-08-22T18:04:47.377Z,2.30
2022-08-22T18:08:04.109Z,1.90
2022-08-22T18:11:20.799Z,2.20
2022-08-22T18:14:34.770Z,2.63
2022-08-22T18:17:48.472Z,2.10
2022-08-22T18:21:00.414Z,2.13
2022-08-22T18:24:31.288Z,2.67
2022-08-22T18:27:48.190Z,2.40
2022-08-22T18:31:02.081Z,2.43
2022-08-22T18:34:20.791Z,2.00
2022-08-22T18:37:50.815Z,1.83
2022-08-22T18:41:05.586Z,2.20
2022-08-22T18:44:25.408Z,2.40
2022-08-22T18:47:33.848Z,1.90
2022-08-22T18:50:38.703Z,2.13
2022-08-22T18:53:49.937Z,1.97
2022-08-22T18:57:00.727Z,2.00
2022-08-22T19:00:13.267Z,2.40
2022-08-22T19:03:42.662Z,2.10
2022-08-22T19:07:17.194Z,1.97
2022-08-22T19:10:55.050Z,2.27
2022-08-22T19:14:51.199Z,2.17
2022-08-22T19:18:27.090Z,2.07
2022-08-22T19:21:51.751Z,1.77
2022-08-22T19:25:26.169Z,2.00
2022-08-22T19:28:38.451Z,1.90
2022-08-22T19:31:53.184Z,1.77
2022-08-22T19:35:21.764Z,2.17
2022-08-22T19:38:58.687Z,1.83
2022-08-22T19:42:02.703Z,1.77
2022-08-22T19:45:29.013Z,2.13
2022-08-22T19:48:45.618Z,1.60
2022-08-22T19:52:12.005Z,1.90
2022-08-22T19:55:30.115Z,2.20
2022-08-22T19:58:56.457Z,1.80
2022-08-22T20:02:19.283Z,2.20
2022-08-22T20:05:37.436Z,1.63
2022-08-22T20:09:04.152Z,2.17
2022-08-22T20:12:20.359Z,1.67
2022-08-22T20:15:28.504Z,1.80
2022-08-22T20:19:06.561Z,2.00
2022-08-22T20:22:19.483Z,2.07
2022-08-22T20:25:41.850Z,2.10
2022-08-22T20:28:52.443Z,2.30
2022-08-22T20:31:58.875Z,1.77
2022-08-22T20:35:07.169Z,1.73
2022-08-22T20:38:17.666Z,2.30
2022-08-22T20:41:27.895Z,1.70
2022-08-22T20:44:38.442Z,1.67
2022-08-22T20:47:50.474Z,2.07
2022-08-22T20:51:04.244Z,2.10
2022-08-22T20:54:20.200Z,2.27
2022-08-22T20:57:25.326Z,2.40
2022-08-22T21:00:35.647Z,2.03
2022-08-22T21:03:45.764Z,2.17
2022-08-22T21:07:00.151Z,2.13
2022-08-22T21:10:33.719Z,1.63
2022-08-22T21:13:39.175Z,2.77
2022-08-22T21:16:42.806Z,2.43
2022-08-22T21:19:46.633Z,2.07
2022-08-22T21:22:51.858Z,1.87
2022-08-22T21:26:00.328Z,1.87
2022-08-22T21:29:19.253Z,2.10
2022-08-22T21:32:33.643Z,1.63
2022-08-22T21:35:37.350Z,2.17
2022-08-22T21:38:47.252Z,2.20
2022-08-22T21:41:54.458Z,2.10
2022-08-22T21:45:02.939Z,2.43
2022-08-22T21:48:34.731Z,2.13
2022-08-22T21:51:45.530Z,2.10
2022-08-22T21:54:49.095Z,2.47
2022-08-22T21:58:07.859Z,2.30
2022-08-22T22:01:33.931Z,2.10
2022-08-22T22:04:37.543Z,2.27
2022-08-22T22:07:45.738Z,1.93
2022-08-22T22:10:51.398Z,1.97
2022-08-22T22:13:55.725Z,2.10
2022-08-22T22:17:00.769Z,2.17
2022-08-22T22:20:05.516Z,2.27
2022-08-22T22:23:09.932Z,2.47
2022-08-22T22:26:15.349Z,1.97
2022-08-22T22:29:18.956Z,2.40
2022-08-22T22:32:23.925Z,2.63
2022-08-22T22:35:27.802Z,2.53
2022-08-22T22:38:31.460Z,2.57
2022-08-22T22:41:36.139Z,2.27
2022-08-22T22:44:39.846Z,2.30
2022-08-22T22:47:48.926Z,2.37
2022-08-22T22:50:53.465Z,1.97
2022-08-22T22:53:57.848Z,2.23
2022-08-22T22:57:01.448Z,1.97
2022-08-22T23:00:07.599Z,1.93
2022-08-22T23:03:12.603Z,2.37
2022-08-22T23:06:20.159Z,1.93
2022-08-22T23:09:38.621Z,1.97
2022-08-22T23:12:48.724Z,2.10
2022-08-22T23:15:52.367Z,2.00
2022-08-22T23:18:58.099Z,2.40
2022-08-22T23:22:03.307Z,2.20
2022-08-22T23:25:07.862Z,2.17
2022-08-22T23:28:11.596Z,2.27
2022-08-22T23:31:27.419Z,1.73
2022-08-22T23:34:35.997Z,2.07
2022-08-22T23:37:39.752Z,2.20
2022-08-22T23:40:43.427Z,2.10
2022-08-22T23:43:50.517Z,2.47
2022-08-22T23:46:54.751Z,2.33
2022-08-22T23:50:05.741Z,2.10
2022-08-22T23:53:10.135Z,2.10
2022-08-22T23:56:19.442Z,2.23
2022-08-22T23:59:30.069Z,2.27
